Time;durP1;ratioP1;P1;durP2;ratioP2;P2;SDS_P1;SDS_P2;PMS_P1;PMS_P2;Temp;Humidity;BMP_temperature;BMP_pressure;BME280_temperature;BME280_humidity;BME280_pressure;Samples;Min_cycle;Max_cycle;Signal;HPM_P1;HPM_P2
2022/06/02 00:02:11;;;;;;;4.03;1.05;;;;;;;13.96;50.66;101352.22;5145538;28;20562;-77
2022/06/02 00:04:54;;;;;;;0.70;0.70;;;;;;;13.89;50.92;101348.88;5116479;28;20124;-77
2022/06/02 00:07:36;;;;;;;0.75;0.75;;;;;;;13.90;50.88;101353.25;5130327;28;20049;-77
2022/06/02 00:10:33;;;;;;;0.52;0.52;;;;;;;13.88;50.79;101351.59;5131225;28;20038;-77
2022/06/02 00:13:24;;;;;;;0.98;0.95;;;;;;;13.83;51.11;101355.25;5136997;28;20031;-78
2022/06/02 00:16:01;;;;;;;0.60;0.60;;;;;;;13.79;50.92;101358.88;5138097;28;20224;-77
2022/06/02 00:18:57;;;;;;;0.75;0.75;;;;;;;13.74;51.26;101350.25;5128945;28;20036;-77
2022/06/02 00:21:35;;;;;;;0.45;0.45;;;;;;;13.67;51.34;101352.19;5085637;28;20193;-77
2022/06/02 00:24:27;;;;;;;0.82;0.82;;;;;;;13.66;51.34;101355.72;5133060;28;20042;-77
2022/06/02 00:27:30;;;;;;;0.52;0.52;;;;;;;13.64;51.20;101361.97;5142710;28;20053;-77
2022/06/02 00:30:24;;;;;;;0.73;0.73;;;;;;;13.60;51.34;101352.41;5112592;28;20391;-77
2022/06/02 00:33:07;;;;;;;0.90;0.90;;;;;;;13.58;51.25;101351.59;5127390;28;20565;-77
2022/06/02 00:35:50;;;;;;;0.90;0.90;;;;;;;13.53;51.21;101357.00;5133023;28;20360;-77
2022/06/02 00:38:26;;;;;;;0.60;0.60;;;;;;;13.48;51.18;101359.78;5147884;28;20864;-77
2022/06/02 00:41:10;;;;;;;0.47;0.47;;;;;;;13.44;51.38;101355.50;5120133;28;20393;-77
2022/06/02 00:43:51;;;;;;;0.65;0.65;;;;;;;13.40;51.46;101361.78;5116067;28;20035;-77
2022/06/02 00:46:31;;;;;;;0.77;0.77;;;;;;;13.35;51.48;101361.00;5127531;28;20465;-77
2022/06/02 00:49:14;;;;;;;0.93;0.93;;;;;;;13.29;51.83;101361.19;5113685;28;20565;-77
2022/06/02 00:52:13;;;;;;;0.80;0.80;;;;;;;13.32;51.41;101372.50;5133130;28;20414;-77
2022/06/02 00:58:16;;;;;;;0.68;0.68;;;;;;;13.24;51.70;101374.47;5149121;28;20038;-77
2022/06/02 01:01:17;;;;;;;0.30;0.30;;;;;;;13.18;52.03;101375.50;5114039;28;20077;-77
2022/06/02 01:03:48;;;;;;;0.50;0.50;;;;;;;13.16;51.49;101384.38;5140986;28;20522;-77
2022/06/02 01:06:18;;;;;;;0.43;0.43;;;;;;;13.12;51.88;101377.47;5130154;28;20141;-77
2022/06/02 01:09:14;;;;;;;0.88;0.88;;;;;;;13.09;52.13;101381.06;5126402;28;20034;-77
2022/06/02 01:12:20;;;;;;;0.80;0.80;;;;;;;13.08;51.97;101379.31;5115016;28;20039;-77
2022/06/02 01:15:15;;;;;;;0.75;0.75;;;;;;;13.03;51.92;101378.56;5155655;28;20125;-77
2022/06/02 01:17:58;;;;;;;0.60;0.60;;;;;;;13.00;52.15;101386.56;5133011;28;20446;-77
2022/06/02 01:20:31;;;;;;;0.65;0.65;;;;;;;12.97;51.93;101390.16;5144199;28;20598;-77
2022/06/02 01:23:05;;;;;;;;;;;;;;;12.97;52.23;101398.06;5125355;28;20417;-77
2022/06/02 01:25:54;;;;;;;1.25;1.17;;;;;;;12.93;52.10;101398.19;5145049;28;20696;-76
2022/06/02 01:28:27;;;;;;;1.95;0.73;;;;;;;12.89;52.27;101397.38;5138159;28;20545;-77
2022/06/02 01:31:12;;;;;;;;;;;;;;;12.84;52.39;101401.88;5118313;28;20379;-77
2022/06/02 01:33:57;;;;;;;0.95;0.95;;;;;;;12.86;52.51;101403.56;5128872;28;19921;-77
2022/06/02 01:36:42;;;;;;;1.50;0.95;;;;;;;12.79;52.66;101399.38;5152106;28;20035;-77
2022/06/02 01:39:30;;;;;;;0.80;0.80;;;;;;;12.77;52.26;101402.97;5123140;28;20031;-77
2022/06/02 01:42:22;;;;;;;0.75;0.75;;;;;;;12.76;52.34;101399.47;5116060;28;20051;-77
2022/06/02 01:45:31;;;;;;;1.20;0.88;;;;;;;12.78;52.69;101400.28;5116657;28;20206;-77
2022/06/02 01:48:10;;;;;;;1.98;0.85;;;;;;;12.70;52.51;101392.59;5122832;28;20050;-77
2022/06/02 01:51:02;;;;;;;1.17;0.98;;;;;;;12.69;52.57;101393.47;5130853;28;20042;-77
2022/06/02 01:53:51;;;;;;;1.00;1.00;;;;;;;12.67;52.87;101394.44;5136096;28;20030;-78
2022/06/02 01:57:06;;;;;;;0.90;0.82;;;;;;;12.59;52.72;101391.97;5132281;28;20128;-77
2022/06/02 01:59:55;;;;;;;0.90;0.90;;;;;;;12.54;52.84;101391.25;5117151;28;20077;-78
2022/06/02 02:02:32;;;;;;;1.25;1.17;;;;;;;12.50;53.06;101398.34;5132864;28;20026;-77
2022/06/02 02:05:18;;;;;;;0.75;0.75;;;;;;;12.49;52.80;101393.97;5140707;28;20055;-78
2022/06/02 02:08:15;;;;;;;1.00;1.00;;;;;;;12.41;52.85;101395.94;5147527;28;20613;-77
2022/06/02 02:10:58;;;;;;;0.50;0.50;;;;;;;12.44;52.73;101406.38;5154723;28;20097;-77
2022/06/02 02:13:42;;;;;;;2.47;1.43;;;;;;;12.37;52.92;101397.78;5136622;28;20122;-77
2022/06/02 02:16:39;;;;;;;0.40;0.40;;;;;;;12.37;53.12;101402.16;5118417;28;20043;-78
2022/06/02 02:19:24;;;;;;;0.77;0.77;;;;;;;12.36;53.36;101410.94;5115718;28;20035;-78
2022/06/02 02:22:24;;;;;;;0.85;0.73;;;;;;;12.31;52.99;101411.09;5153099;28;20201;-78
2022/06/02 02:25:19;;;;;;;0.85;0.85;;;;;;;12.25;53.05;101408.56;5142536;28;20088;-78
2022/06/02 02:28:03;;;;;;;1.27;1.15;;;;;;;12.21;52.93;101413.03;5146033;28;20037;-78
2022/06/02 02:30:44;;;;;;;0.73;0.70;;;;;;;12.24;53.74;101407.72;5103650;28;20531;-78
2022/06/02 02:33:33;;;;;;;1.27;0.70;;;;;;;12.17;53.45;101406.13;5127458;28;20031;-78
2022/06/02 02:36:19;;;;;;;1.05;1.05;;;;;;;12.17;53.17;101406.13;5138657;28;20046;-78
2022/06/02 02:39:14;;;;;;;1.02;0.93;;;;;;;12.13;53.67;101404.47;5137656;28;20038;-78
2022/06/02 02:41:52;;;;;;;0.45;0.45;;;;;;;12.14;53.72;101405.34;5134399;28;20392;-78
2022/06/02 02:44:40;;;;;;;1.08;1.05;;;;;;;12.07;53.32;101404.59;5136570;28;20080;-78
2022/06/02 02:47:18;;;;;;;1.08;1.08;;;;;;;12.02;53.43;101403.84;5134811;28;20026;-78
2022/06/02 02:50:08;;;;;;;0.70;0.70;;;;;;;11.98;53.23;101405.69;5130635;28;20030;-78
2022/06/02 02:52:57;;;;;;;1.55;1.25;;;;;;;11.97;53.36;101409.22;5133606;28;20132;-78
2022/06/02 02:55:43;;;;;;;1.60;0.68;;;;;;;11.96;53.46;101408.28;5128914;28;20046;-78
2022/06/02 02:58:24;;;;;;;0.57;0.57;;;;;;;11.94;54.03;101412.72;5128309;28;20026;-78
2022/06/02 03:01:11;;;;;;;1.40;1.30;;;;;;;11.86;54.24;101417.28;5105004;28;20054;-78
2022/06/02 03:04:07;;;;;;;1.08;1.08;;;;;;;11.89;53.73;101417.22;5132970;28;20043;-78
2022/06/02 03:06:42;;;;;;;1.13;1.08;;;;;;;11.85;53.73;101427.84;5129696;28;20077;-78
2022/06/02 03:09:36;;;;;;;11.30;0.85;;;;;;;11.82;54.03;101420.88;5149455;28;20395;-78
2022/06/02 03:12:26;;;;;;;0.82;0.82;;;;;;;11.79;53.91;101441.97;5136733;28;20050;-78
2022/06/02 03:15:13;;;;;;;2.70;1.77;;;;;;;11.78;53.79;101432.34;5130456;28;20173;-78
2022/06/02 03:17:49;;;;;;;4.65;1.75;;;;;;;11.71;53.97;101434.25;5127605;28;20042;-78
2022/06/02 03:24:46;;;;;;;1.15;1.05;;;;;;;11.69;53.91;101440.44;5146666;28;20498;-78
2022/06/02 03:27:36;;;;;;;0.90;0.90;;;;;;;11.68;54.15;101438.72;5127618;28;20053;-78
2022/06/02 03:30:08;;;;;;;1.40;1.13;;;;;;;11.65;54.00;101440.50;5147522;28;20061;-78
2022/06/02 03:33:01;;;;;;;1.15;1.15;;;;;;;11.57;54.32;101442.41;5130897;28;20518;-77
2022/06/02 03:35:51;;;;;;;2.00;1.85;;;;;;;11.63;54.17;101441.44;5129185;28;20178;-76
2022/06/02 03:38:40;;;;;;;0.93;0.93;;;;;;;11.54;54.22;101442.47;5151544;28;20509;-78
2022/06/02 03:41:53;;;;;;;3.42;2.30;;;;;;;11.52;54.47;101448.66;5120585;28;20261;-77
2022/06/02 03:44:36;;;;;;;1.27;1.27;;;;;;;11.53;54.31;101450.38;5151491;28;20053;-78
2022/06/02 03:47:28;;;;;;;1.10;1.10;;;;;;;11.53;54.04;101459.13;5143067;28;20062;-78
2022/06/02 03:50:15;;;;;;;0.80;0.80;;;;;;;11.48;54.00;101459.25;5118763;28;20136;-78
2022/06/02 03:52:51;;;;;;;0.90;0.90;;;;;;;11.46;54.42;101460.13;5150285;28;20044;-78
2022/06/02 03:55:25;;;;;;;0.70;0.70;;;;;;;11.47;54.16;101462.75;5123823;28;20055;-78
2022/06/02 03:58:22;;;;;;;1.45;1.35;;;;;;;11.45;54.25;101476.78;5137326;28;20049;-78
2022/06/02 04:01:01;;;;;;;4.75;2.65;;;;;;;11.41;54.28;101472.50;5132225;28;20038;-79
2022/06/02 04:03:37;;;;;;;1.92;1.77;;;;;;;11.40;55.01;101481.28;5119979;28;20042;-78
2022/06/02 04:06:35;;;;;;;1.05;1.05;;;;;;;11.44;54.94;101485.59;5119152;28;20129;-78
2022/06/02 04:09:20;;;;;;;1.88;1.08;;;;;;;11.39;54.59;101483.06;5120979;28;20045;-79
2022/06/02 04:15:28;;;;;;;2.78;2.20;;;;;;;11.35;54.98;101489.25;5119775;28;20231;-78
2022/06/02 04:17:58;;;;;;;1.73;1.25;;;;;;;11.33;55.04;101486.66;5134578;28;20351;-77
2022/06/02 04:20:35;;;;;;;1.13;1.13;;;;;;;11.37;55.01;101489.22;5138531;28;20057;-78
2022/06/02 04:23:26;;;;;;;2.15;1.85;;;;;;;11.39;55.47;101490.06;5137637;28;20026;-77
2022/06/02 04:26:28;;;;;;;2.53;0.82;;;;;;;11.32;55.05;101487.56;5137145;28;20061;-78
2022/06/02 04:29:26;;;;;;;7.40;3.63;;;;;;;11.30;55.37;101489.31;5101978;28;20474;-80
2022/06/02 04:32:12;;;;;;;1.23;1.23;;;;;;;11.30;55.43;101497.22;5148048;28;20562;-79
2022/06/02 04:35:11;;;;;;;1.00;1.00;;;;;;;11.26;55.18;101503.44;5128202;28;20565;-79
2022/06/02 04:37:59;;;;;;;1.23;1.23;;;;;;;11.25;55.22;101499.06;5119313;28;20062;-78
2022/06/02 04:40:39;;;;;;;1.52;1.15;;;;;;;11.24;55.48;101501.72;5134575;28;20046;-79
2022/06/02 04:43:22;;;;;;;4.68;1.92;;;;;;;11.26;55.38;101500.81;5129014;28;20026;-80
2022/06/02 04:46:01;;;;;;;1.10;1.08;;;;;;;11.27;56.01;101510.41;5130297;28;20058;-79
2022/06/02 04:49:01;;;;;;;7.20;3.83;;;;;;;11.26;55.37;101508.69;5145426;28;20395;-78
2022/06/02 04:51:37;;;;;;;1.30;0.88;;;;;;;11.31;55.32;101514.72;5147102;28;20085;-79
2022/06/02 04:54:33;;;;;;;1.98;1.40;;;;;;;11.40;57.10;101520.69;5129565;28;20049;-78
2022/06/02 04:57:06;;;;;;;0.52;0.52;;;;;;;11.38;57.29;101522.47;5113423;28;20094;-78
2022/06/02 05:00:01;;;;;;;10.48;1.35;;;;;;;11.37;56.55;101519.00;5138799;28;20692;-77
2022/06/02 05:02:45;;;;;;;2.15;1.95;;;;;;;11.40;56.79;101510.19;5136947;28;20035;-78
2022/06/02 05:05:48;;;;;;;2.03;1.92;;;;;;;11.44;58.14;101511.88;5134340;28;20061;-77
2022/06/02 05:08:47;;;;;;;4.88;1.67;;;;;;;11.48;57.57;101526.69;5127341;28;20041;-77
2022/06/02 05:11:35;;;;;;;2.60;2.38;;;;;;;11.46;57.35;101517.94;5130792;28;20046;-78
2022/06/02 05:14:18;;;;;;;1.60;1.52;;;;;;;11.46;57.19;101515.31;5101076;28;20627;-79
2022/06/02 05:17:08;;;;;;;1.08;1.05;;;;;;;11.48;56.99;101514.44;5144617;28;20065;-79
2022/06/02 05:20:15;;;;;;;2.35;2.15;;;;;;;11.53;56.85;101518.72;5116412;28;20042;-79
2022/06/02 05:23:25;;;;;;;1.42;1.33;;;;;;;11.51;57.72;101518.75;5135336;28;20117;-78
2022/06/02 05:26:34;;;;;;;2.20;1.65;;;;;;;11.53;57.67;101514.31;5131445;28;20034;-79
2022/06/02 05:29:32;;;;;;;0.50;0.50;;;;;;;11.58;56.93;101524.75;5086631;28;20548;-78
2022/06/02 05:32:30;;;;;;;2.35;1.92;;;;;;;11.57;57.49;101523.03;5126166;28;20038;-78
2022/06/02 05:35:18;;;;;;;4.90;1.10;;;;;;;11.59;58.33;101524.75;5109972;28;20061;-78
2022/06/02 05:38:13;;;;;;;1.38;1.30;;;;;;;11.71;59.48;101522.75;5136662;28;20121;-78
2022/06/02 05:41:13;;;;;;;0.82;0.82;;;;;;;11.74;60.42;101517.44;5148988;28;20137;-78
2022/06/02 05:44:15;;;;;;;2.55;2.35;;;;;;;11.69;59.10;101514.06;5130789;28;20274;-76
2022/06/02 05:46:58;;;;;;;0.80;0.80;;;;;;;11.73;59.18;101526.22;5133581;28;20408;-76
2022/06/02 05:49:51;;;;;;;0.80;0.80;;;;;;;11.79;59.27;101531.38;5129756;28;20375;-78
2022/06/02 05:52:25;;;;;;;1.80;1.70;;;;;;;11.78;59.35;101520.00;5126213;28;20042;-79
2022/06/02 05:55:14;;;;;;;;;;;;;;;11.86;60.01;101519.81;5116952;28;20478;-80
2022/06/02 05:58:11;;;;;;;2.20;2.03;;;;;;;11.91;61.02;101525.88;5119564;28;19917;-79
2022/06/02 06:00:53;;;;;;;1.27;1.27;;;;;;;11.86;59.92;101519.81;5134830;28;20324;-79
2022/06/02 06:03:46;;;;;;;1.00;0.87;;;;;;;11.91;58.91;101525.88;5124838;28;20232;-81
2022/06/02 06:06:28;;;;;;;2.05;1.95;;;;;;;11.97;58.98;101530.19;5136909;28;20113;-78
2022/06/02 06:09:21;;;;;;;1.73;1.63;;;;;;;11.96;58.88;101537.16;5131921;28;20121;-79
2022/06/02 06:12:29;;;;;;;1.98;1.80;;;;;;;12.01;62.09;101541.50;5133502;28;20058;-78
2022/06/02 06:15:11;;;;;;;1.48;1.40;;;;;;;12.04;59.86;101547.56;5107818;28;20443;-78
2022/06/02 06:18:09;;;;;;;1.02;1.02;;;;;;;12.07;59.04;101546.66;5101581;28;20117;-80
2022/06/02 06:21:02;;;;;;;5.03;1.15;;;;;;;12.14;58.73;101545.63;5136497;28;20043;-78
2022/06/02 06:23:45;;;;;;;1.08;1.08;;;;;;;12.11;60.94;101546.56;5139922;28;20256;-82
2022/06/02 06:26:45;;;;;;;1.35;1.02;;;;;;;12.22;60.66;101543.69;5138011;28;20035;-78
2022/06/02 06:30:06;;;;;;;1.70;1.60;;;;;;;12.28;60.69;101551.44;5152892;28;20034;-79
2022/06/02 06:32:58;;;;;;;1.83;1.67;;;;;;;12.28;60.15;101550.59;5081392;28;20545;-82
2022/06/02 06:35:54;;;;;;;2.17;2.08;;;;;;;12.32;61.07;101557.50;5119649;28;20077;-79
2022/06/02 06:38:52;;;;;;;0.95;0.95;;;;;;;12.36;61.01;101556.56;5138569;28;20042;-80
2022/06/02 06:41:40;;;;;;;1.30;1.25;;;;;;;12.36;61.29;101559.19;5153860;28;20819;-78
2022/06/02 06:44:35;;;;;;;1.00;1.00;;;;;;;12.41;60.18;101569.63;5125154;28;20109;-78
2022/06/02 06:47:15;;;;;;;1.38;1.30;;;;;;;12.42;59.88;101563.47;5146726;28;20046;-79
2022/06/02 06:49:51;;;;;;;0.73;0.73;;;;;;;12.54;61.09;101567.59;5109086;28;20518;-79
2022/06/02 06:52:47;;;;;;;1.50;1.05;;;;;;;12.55;62.44;101575.47;5116048;28;20248;-81
2022/06/02 06:55:36;;;;;;;0.52;0.52;;;;;;;12.53;60.67;101576.41;5115884;28;20268;-79
2022/06/02 06:58:28;;;;;;;1.33;1.23;;;;;;;12.65;60.13;101570.84;5123528;28;20022;-80
2022/06/02 07:01:39;;;;;;;0.80;0.80;;;;;;;12.66;60.59;101577.84;5153827;28;20050;-79
2022/06/02 07:04:22;;;;;;;1.55;1.20;;;;;;;12.62;62.91;101580.59;5153608;28;20034;-81
2022/06/02 07:07:08;;;;;;;1.38;1.27;;;;;;;12.72;61.77;101577.75;5135883;28;20523;-79
2022/06/02 07:09:59;;;;;;;5.35;2.22;;;;;;;12.71;62.00;101585.66;5151708;28;20053;-78
2022/06/02 07:12:53;;;;;;;0.85;0.85;;;;;;;12.83;60.96;101585.38;5135869;28;20402;-78
2022/06/02 07:15:44;;;;;;;2.00;1.90;;;;;;;12.80;62.60;101579.34;5134571;28;20043;-78
2022/06/02 07:18:37;;;;;;;0.88;0.88;;;;;;;12.74;65.13;101585.59;5146359;28;20031;-81
2022/06/02 07:21:29;;;;;;;2.08;1.98;;;;;;;12.72;62.75;101587.38;5152389;28;20362;-79
2022/06/02 07:24:12;;;;;;;0.65;0.65;;;;;;;12.83;61.57;101576.59;5146919;28;20534;-78
2022/06/02 07:27:03;;;;;;;1.13;1.13;;;;;;;12.90;60.99;101581.72;5149900;28;20056;-81
2022/06/02 07:29:37;;;;;;;1.45;1.35;;;;;;;13.00;60.73;101581.50;5147031;28;20048;-79
2022/06/02 07:32:26;;;;;;;3.30;2.55;;;;;;;13.04;61.15;101588.41;5134266;28;20038;-80
2022/06/02 07:35:18;;;;;;;1.23;1.13;;;;;;;13.04;60.41;101577.88;5154202;28;20470;-79
2022/06/02 07:37:58;;;;;;;1.05;1.05;;;;;;;13.06;60.99;101574.28;5149714;28;20033;-78
2022/06/02 07:40:51;;;;;;;3.75;3.45;;;;;;;13.08;60.79;101576.91;5131020;28;20586;-79
2022/06/02 07:43:38;;;;;;;2.33;2.13;;;;;;;13.15;60.41;101578.50;5123101;28;20030;-79
2022/06/02 07:46:11;;;;;;;0.50;0.50;;;;;;;13.11;60.88;101579.47;5127774;28;20050;-80
2022/06/02 07:49:10;;;;;;;0.88;0.88;;;;;;;13.15;61.66;101583.75;5120730;28;20050;-79
2022/06/02 07:51:56;;;;;;;5.28;1.85;;;;;;;13.22;60.78;101581.84;5127135;28;20109;-80
2022/06/02 07:54:38;;;;;;;1.77;1.67;;;;;;;13.26;60.76;101582.66;5153830;28;20414;-79
2022/06/02 07:57:14;;;;;;;0.50;0.50;;;;;;;13.34;60.00;101592.09;5124508;28;20043;-77
2022/06/02 08:00:10;;;;;;;2.40;1.45;;;;;;;13.45;60.02;101588.34;5145622;28;20358;-78
2022/06/02 08:03:13;;;;;;;0.90;0.77;;;;;;;13.48;59.84;101589.13;5156107;28;20034;-79
2022/06/02 08:05:44;;;;;;;7.90;1.38;;;;;;;13.55;59.65;101584.59;5135323;28;20125;-77
2022/06/02 08:08:21;;;;;;;0.68;0.68;;;;;;;13.60;59.70;101581.81;5137519;28;20019;-77
2022/06/02 08:11:21;;;;;;;1.35;1.25;;;;;;;13.59;59.96;101580.09;5148493;28;20129;-81
2022/06/02 08:14:29;;;;;;;1.25;1.15;;;;;;;13.71;59.43;101578.91;5109848;28;20200;-78
2022/06/02 08:17:07;;;;;;;0.63;0.63;;;;;;;13.73;59.36;101577.97;5121803;28;20410;-80
2022/06/02 08:19:57;;;;;;;1.45;1.35;;;;;;;13.75;59.05;101589.34;5146166;28;20139;-80
2022/06/02 08:22:37;;;;;;;1.38;1.30;;;;;;;13.81;58.77;101586.53;5130197;28;20034;-79
2022/06/02 08:25:14;;;;;;;0.75;0.75;;;;;;;13.79;58.60;101587.47;5136965;28;20070;-78
2022/06/02 08:28:00;;;;;;;0.40;0.40;;;;;;;13.82;58.56;101587.38;5126828;28;20542;-78
2022/06/02 08:30:48;;;;;;;1.23;1.05;;;;;;;13.82;58.97;101583.00;5129138;28;20046;-79
2022/06/02 08:33:26;;;;;;;1.23;1.17;;;;;;;13.86;59.23;101583.78;5153683;28;20184;-80
2022/06/02 08:36:17;;;;;;;2.05;1.55;;;;;;;13.93;59.11;101580.06;5130292;28;20046;-78
2022/06/02 08:39:09;;;;;;;1.23;1.13;;;;;;;13.98;59.35;101578.13;5149611;28;20046;-79
2022/06/02 08:42:17;;;;;;;0.70;0.70;;;;;;;14.13;58.60;101578.66;5136377;28;20038;-79
2022/06/02 08:44:53;;;;;;;0.55;0.55;;;;;;;14.03;58.94;101585.94;5128441;28;20537;-77
2022/06/02 08:47:45;;;;;;;0.77;0.77;;;;;;;14.04;59.13;101590.31;5131277;28;20054;-77
2022/06/02 08:50:34;;;;;;;0.70;0.70;;;;;;;14.06;59.53;101585.84;5114959;28;20038;-77
2022/06/02 08:53:26;;;;;;;1.25;1.15;;;;;;;14.13;60.09;101592.69;5137836;28;20100;-80
2022/06/02 08:56:06;;;;;;;0.90;0.90;;;;;;;14.23;59.66;101581.88;5129338;28;20133;-79
2022/06/02 08:59:07;;;;;;;1.02;1.00;;;;;;;14.43;59.82;101590.06;5114063;28;20129;-78
2022/06/02 09:02:02;;;;;;;0.50;0.50;;;;;;;14.44;59.51;101593.59;5144236;28;20049;-80
2022/06/02 09:04:55;;;;;;;0.95;0.95;;;;;;;14.43;59.45;101599.78;5159690;28;20030;-78
2022/06/02 09:07:54;;;;;;;0.52;0.52;;;;;;;14.50;59.03;101606.59;5141702;28;20058;-81
2022/06/02 09:10:41;;;;;;;0.70;0.70;;;;;;;14.53;58.76;101613.56;5123675;28;20177;-78
2022/06/02 09:13:43;;;;;;;2.15;1.55;;;;;;;14.62;58.46;101618.56;5152535;28;20042;-81
2022/06/02 09:16:31;;;;;;;1.05;1.00;;;;;;;14.75;58.32;101613.81;5146137;28;20092;-78
2022/06/02 09:19:02;;;;;;;0.40;0.40;;;;;;;14.75;58.42;101617.31;5092669;28;20050;-78
2022/06/02 09:21:59;;;;;;;0.68;0.68;;;;;;;14.78;57.75;101611.09;5129890;28;20042;-80
2022/06/02 09:24:29;;;;;;;0.50;0.50;;;;;;;14.78;58.14;101609.31;5147442;28;20035;-79
2022/06/02 09:27:42;;;;;;;0.80;0.80;;;;;;;14.82;57.64;101609.22;5121771;28;20043;-80
2022/06/02 09:30:36;;;;;;;0.70;0.70;;;;;;;14.92;57.45;101614.19;5124197;28;20684;-79
2022/06/02 09:33:34;;;;;;;4.22;1.55;;;;;;;14.98;57.39;101610.47;5146541;28;20554;-79
2022/06/02 09:36:42;;;;;;;0.80;0.80;;;;;;;14.94;57.29;101617.66;5148550;28;20104;-76
2022/06/02 09:39:34;;;;;;;0.70;0.70;;;;;;;15.00;57.16;101613.06;5134668;28;20042;-80
2022/06/02 09:42:10;;;;;;;0.55;0.55;;;;;;;15.02;56.70;101612.09;5152052;28;20097;-80
2022/06/02 09:44:43;;;;;;;0.85;0.85;;;;;;;15.00;56.04;101610.44;5156764;28;20339;-79
2022/06/02 09:47:43;;;;;;;0.40;0.40;;;;;;;14.98;55.32;101606.97;5148889;28;20398;-77
2022/06/02 09:50:38;;;;;;;0.40;0.40;;;;;;;14.98;55.28;101599.91;5093340;28;20120;-79
2022/06/02 09:53:22;;;;;;;0.68;0.68;;;;;;;15.10;54.38;101602.16;5117074;28;20027;-78
2022/06/02 09:56:20;;;;;;;0.30;0.30;;;;;;;15.14;55.14;101599.41;5133887;28;20130;-79
2022/06/02 09:59:17;;;;;;;0.70;0.70;;;;;;;15.10;55.37;101596.88;5121963;28;20590;-78
2022/06/02 10:02:11;;;;;;;0.65;0.65;;;;;;;15.22;54.61;101590.31;5153962;28;20057;-77
2022/06/02 10:05:04;;;;;;;1.10;1.02;;;;;;;15.30;54.01;101590.06;5154884;28;20042;-76
2022/06/02 10:08:05;;;;;;;2.13;1.52;;;;;;;15.24;53.41;101590.28;5137112;28;20022;-77
2022/06/02 10:10:48;;;;;;;0.57;0.57;;;;;;;15.34;53.41;101589.03;5134253;28;20149;-77
2022/06/02 10:13:28;;;;;;;0.73;0.73;;;;;;;15.46;53.67;101598.34;5136276;28;20038;-78
2022/06/02 10:16:36;;;;;;;0.60;0.60;;;;;;;15.45;53.16;101595.75;5131824;28;20050;-77
2022/06/02 10:19:06;;;;;;;0.38;0.38;;;;;;;15.50;52.88;101596.47;5146997;28;20050;-78
2022/06/02 10:22:02;;;;;;;0.65;0.65;;;;;;;15.57;51.74;101598.00;5130824;28;20125;-78
2022/06/02 10:24:36;;;;;;;0.77;0.77;;;;;;;15.68;53.21;101597.63;5136240;28;20062;-77
2022/06/02 10:27:48;;;;;;;0.32;0.32;;;;;;;15.64;52.85;101596.00;5114142;28;20070;-78
2022/06/02 10:30:37;;;;;;;1.23;0.75;;;;;;;15.71;53.05;101582.50;5147421;28;20042;-78
2022/06/02 10:33:08;;;;;;;0.40;0.40;;;;;;;15.79;53.01;101589.31;5132516;28;20062;-78
2022/06/02 10:36:03;;;;;;;1.45;1.30;;;;;;;16.02;51.51;101584.09;5130375;28;20192;-78
2022/06/02 10:39:00;;;;;;;1.10;1.00;;;;;;;15.93;49.97;101583.56;5117400;28;20045;-77
2022/06/02 10:41:36;;;;;;;0.50;0.50;;;;;;;16.05;51.52;101580.47;5130923;28;20070;-79
2022/06/02 10:44:13;;;;;;;0.47;0.47;;;;;;;16.13;50.99;101569.59;5151194;28;20062;-78
2022/06/02 10:46:55;;;;;;;0.90;0.90;;;;;;;16.36;49.37;101569.59;5135441;28;20114;-79
2022/06/02 10:49:55;;;;;;;0.60;0.60;;;;;;;16.24;49.95;101566.56;5148410;28;20502;-78
2022/06/02 10:52:57;;;;;;;0.60;0.60;;;;;;;16.26;48.53;101567.38;5108108;28;20039;-79
2022/06/02 10:56:08;;;;;;;1.02;0.70;;;;;;;16.40;49.54;101569.50;5131037;28;20319;-77
2022/06/02 10:58:49;;;;;;;0.50;0.50;;;;;;;16.41;49.58;101565.91;5121224;28;20035;-80
2022/06/02 11:01:41;;;;;;;0.47;0.47;;;;;;;16.45;50.13;101562.22;5132196;28;20127;-80
2022/06/02 11:04:50;;;;;;;0.68;0.68;;;;;;;16.59;49.35;101562.56;5121630;28;20208;-79
2022/06/02 11:07:54;;;;;;;0.55;0.55;;;;;;;16.65;49.32;101564.97;5141646;28;20049;-81
2022/06/02 11:10:47;;;;;;;1.00;1.00;;;;;;;16.66;49.77;101561.38;5147298;28;20050;-81
2022/06/02 11:13:51;;;;;;;0.50;0.50;;;;;;;16.76;48.02;101561.03;5170907;28;20026;-79
2022/06/02 11:16:54;;;;;;;0.70;0.70;;;;;;;16.90;49.03;101563.97;5140849;28;20051;-79
2022/06/02 11:19:53;;;;;;;0.88;0.88;;;;;;;16.87;45.49;101553.53;5121806;28;20039;-79
2022/06/02 11:23:00;;;;;;;0.82;0.82;;;;;;;16.99;48.43;101547.75;5149028;28;20082;-78
2022/06/02 11:25:52;;;;;;;0.50;0.50;;;;;;;17.13;48.84;101543.69;5147128;28;20490;-79
2022/06/02 11:28:42;;;;;;;0.77;0.77;;;;;;;17.20;48.73;101545.16;5138818;28;20587;-79
2022/06/02 11:31:34;;;;;;;0.82;0.82;;;;;;;17.25;48.97;101543.16;5148601;28;20502;-78
2022/06/02 11:34:23;;;;;;;0.35;0.35;;;;;;;17.34;48.86;101535.72;5135197;28;20109;-78
2022/06/02 11:37:12;;;;;;;1.02;0.90;;;;;;;17.52;47.36;101534.94;5131598;28;20035;-77
2022/06/02 11:40:11;;;;;;;1.55;1.45;;;;;;;17.46;47.68;101537.88;5151367;28;20046;-79
2022/06/02 11:42:56;;;;;;;0.40;0.40;;;;;;;17.62;47.57;101530.97;5139672;28;20030;-80
2022/06/02 11:45:54;;;;;;;0.68;0.68;;;;;;;17.61;46.65;101526.59;5127956;28;20568;-79
2022/06/02 11:48:58;;;;;;;0.70;0.70;;;;;;;17.78;44.09;101524.97;5127753;28;20074;-77
2022/06/02 11:51:54;;;;;;;0.70;0.70;;;;;;;17.84;46.18;101514.06;5143903;28;20046;-77
2022/06/02 11:54:56;;;;;;;0.65;0.60;;;;;;;17.95;46.48;101505.63;5146963;23;20548;-84
2022/06/02 11:57:55;;;;;;;0.45;0.45;;;;;;;18.13;46.60;101509.28;5135329;28;20089;-83
2022/06/02 12:01:05;;;;;;;0.75;0.75;;;;;;;18.17;46.76;101508.19;5125747;28;20031;-84
2022/06/02 12:03:41;;;;;;;1.30;1.20;;;;;;;18.24;46.93;101504.31;5132818;28;20225;-84
2022/06/02 12:06:52;;;;;;;0.47;0.47;;;;;;;18.44;46.05;101502.50;5108250;28;20077;-84
2022/06/02 12:10:07;;;;;;;1.20;0.68;;;;;;;18.49;45.01;101499.63;5102089;28;20463;-83
2022/06/02 12:12:50;;;;;;;0.40;0.40;;;;;;;18.62;46.77;101500.75;5111922;28;20540;-84
2022/06/02 12:15:51;;;;;;;3.92;2.13;;;;;;;18.68;43.86;101494.28;5120649;28;20049;-85
2022/06/02 12:18:40;;;;;;;0.57;0.57;;;;;;;18.74;45.73;101488.66;5133519;28;20034;-84
2022/06/02 12:21:48;;;;;;;0.25;0.25;;;;;;;18.98;44.91;101480.41;5138202;28;20153;-84
2022/06/02 12:24:49;;;;;;;0.30;0.30;;;;;;;19.17;44.77;101473.25;5125566;28;20110;-85
2022/06/02 12:27:58;;;;;;;0.73;0.73;;;;;;;19.07;44.12;101479.09;5133315;28;20055;-85
2022/06/02 12:31:15;;;;;;;3.90;1.48;;;;;;;19.12;43.09;101469.97;5095474;28;20058;-85
2022/06/02 12:34:13;;;;;;;0.38;0.38;;;;;;;19.17;44.20;101470.56;5111299;28;20162;-84
2022/06/02 12:37:10;;;;;;;0.88;0.88;;;;;;;19.29;43.89;101462.91;5128780;28;20404;-84
2022/06/02 12:39:58;;;;;;;0.60;0.55;;;;;;;19.37;43.65;101467.81;5133285;28;20034;-84
2022/06/02 12:42:32;;;;;;;8.85;1.67;;;;;;;19.55;42.86;101469.50;5127268;28;20206;-84
2022/06/02 12:45:56;;;;;;;1.20;1.10;;;;;;;19.60;42.33;101463.94;5120072;28;20043;-84
2022/06/02 12:49:21;;;;;;;0.30;0.30;;;;;;;19.69;43.23;101460.78;5097363;29;20447;-84
2022/06/02 12:51:51;;;;;;;;;;;;;;;19.79;43.15;101464.66;5051818;29;20139;-84
2022/06/02 12:54:59;;;;;;;0.43;0.43;;;;;;;19.86;41.65;101459.06;5112733;28;20001;-81
2022/06/02 12:58:08;;;;;;;0.40;0.40;;;;;;;19.95;41.46;101463.88;5119941;28;20031;-84
2022/06/02 13:01:08;;;;;;;0.68;0.68;;;;;;;20.08;41.70;101456.91;5129521;28;20411;-85
2022/06/02 13:03:56;;;;;;;0.30;0.30;;;;;;;20.11;41.07;101453.22;5108214;28;20518;-81
2022/06/02 13:06:33;;;;;;;0.40;0.40;;;;;;;20.25;42.02;101453.28;5103536;28;20039;-82
2022/06/02 13:09:42;;;;;;;0.57;0.57;;;;;;;20.44;42.62;101442.47;5133672;28;20506;-81
2022/06/02 13:12:47;;;;;;;0.57;0.57;;;;;;;20.56;40.07;101451.56;5095676;28;20042;-82
2022/06/02 13:15:59;;;;;;;0.70;0.70;;;;;;;20.54;40.73;101449.91;5124558;28;20039;-82
2022/06/02 13:18:53;;;;;;;0.40;0.40;;;;;;;20.60;40.80;101446.91;5068111;29;20401;-81
2022/06/02 13:21:46;;;;;;;0.82;0.82;;;;;;;20.78;41.26;101452.16;5106497;28;20040;-82
2022/06/02 13:24:41;;;;;;;0.47;0.47;;;;;;;20.84;40.59;101443.78;5120609;28;20414;-81
2022/06/02 13:27:30;;;;;;;0.43;0.40;;;;;;;20.93;41.49;101453.91;5114681;28;20522;-82